createdAt,value
2022-10-23T00:01:33.583Z,16.40
2022-10-23T00:03:35.241Z,16.40
2022-10-23T00:05:41.136Z,16.30
2022-10-23T00:07:42.787Z,16.30
2022-10-23T00:09:44.823Z,16.30
2022-10-23T00:11:47.982Z,16.30
2022-10-23T00:13:51.072Z,16.30
2022-10-23T00:17:59.228Z,16.20
2022-10-23T00:20:01.831Z,16.20
2022-10-23T00:22:03.701Z,16.20
2022-10-23T00:26:15.557Z,16.10
2022-10-23T00:28:17.517Z,16.10
2022-10-23T00:30:19.377Z,16.10
2022-10-23T00:32:21.104Z,16.10
2022-10-23T00:34:22.837Z,16.00
2022-10-23T00:36:26.873Z,16.00
2022-10-23T00:38:28.529Z,16.00
2022-10-23T00:40:34.437Z,16.00
2022-10-23T00:42:36.121Z,16.00
2022-10-23T00:44:37.874Z,16.00
2022-10-23T00:46:40.223Z,16.00
2022-10-23T00:48:45.809Z,16.00
2022-10-23T00:50:54.111Z,16.00
2022-10-23T00:52:57.690Z,16.00
2022-10-23T00:54:59.610Z,15.90
2022-10-23T00:57:04.086Z,15.90
2022-10-23T00:59:05.946Z,15.90
2022-10-23T01:01:21.000Z,15.90
2022-10-23T01:03:30.177Z,15.90
2022-10-23T01:05:44.545Z,15.90
2022-10-23T01:07:58.355Z,15.90
2022-10-23T01:10:06.211Z,15.90
2022-10-23T01:12:31.589Z,15.90
2022-10-23T01:14:46.340Z,15.90
2022-10-23T01:16:59.812Z,15.90
2022-10-23T01:19:05.233Z,15.90
2022-10-23T01:21:51.524Z,15.90
2022-10-23T01:24:20.058Z,15.90
2022-10-23T01:26:34.922Z,15.90
2022-10-23T01:28:42.459Z,15.90
2022-10-23T01:30:44.921Z,15.90
2022-10-23T01:33:01.633Z,15.80
2022-10-23T01:35:28.282Z,15.90
2022-10-23T01:37:51.940Z,15.90
2022-10-23T01:39:58.965Z,15.90
2022-10-23T01:42:10.974Z,15.90
2022-10-23T01:44:27.465Z,15.90
2022-10-23T01:46:32.612Z,15.90
2022-10-23T01:48:36.277Z,15.90
2022-10-23T01:50:45.798Z,15.90
2022-10-23T01:52:47.587Z,15.90
2022-10-23T01:54:53.488Z,15.90
2022-10-23T01:56:57.778Z,15.90
2022-10-23T01:59:06.181Z,15.90
2022-10-23T02:01:16.331Z,15.90
2022-10-23T02:03:24.502Z,15.90
2022-10-23T02:05:30.806Z,15.80
2022-10-23T02:07:34.976Z,15.90
2022-10-23T02:09:36.949Z,15.90
2022-10-23T02:11:50.776Z,15.90
2022-10-23T02:14:07.526Z,15.90
2022-10-23T02:16:24.961Z,15.80
2022-10-23T02:19:07.770Z,15.90
2022-10-23T02:21:16.477Z,15.90
2022-10-23T02:23:42.974Z,15.90
2022-10-23T02:25:56.890Z,15.90
2022-10-23T02:28:03.181Z,15.90
2022-10-23T02:30:15.973Z,15.80
2022-10-23T02:32:24.969Z,15.80
2022-10-23T02:34:27.021Z,15.80
2022-10-23T02:36:29.682Z,15.70
2022-10-23T02:38:41.303Z,15.70
2022-10-23T02:40:45.363Z,15.70
2022-10-23T02:42:57.959Z,15.70
2022-10-23T02:45:28.901Z,15.70
2022-10-23T02:47:46.591Z,15.80
2022-10-23T02:50:00.963Z,15.70
2022-10-23T02:52:25.458Z,15.80
2022-10-23T02:54:46.663Z,15.80
2022-10-23T02:57:15.346Z,15.80
2022-10-23T02:59:41.447Z,15.80
2022-10-23T03:01:58.132Z,15.80
2022-10-23T03:04:04.805Z,15.80
2022-10-23T03:06:09.230Z,15.70
2022-10-23T03:08:13.634Z,15.80
2022-10-23T03:10:18.130Z,15.70
2022-10-23T03:12:19.785Z,15.70
2022-10-23T03:14:22.130Z,15.70
2022-10-23T03:16:27.537Z,15.70
2022-10-23T03:18:29.967Z,15.70
2022-10-23T03:20:34.023Z,15.70
2022-10-23T03:22:35.958Z,15.70
2022-10-23T03:24:37.605Z,15.70
2022-10-23T03:26:39.301Z,15.70
2022-10-23T03:28:40.987Z,15.60
2022-10-23T03:30:42.659Z,15.60
2022-10-23T03:32:44.777Z,15.60
2022-10-23T03:34:48.165Z,15.70
2022-10-23T03:36:49.866Z,15.60
2022-10-23T03:38:54.953Z,15.60
2022-10-23T03:40:58.856Z,15.60
2022-10-23T03:43:02.867Z,15.60
2022-10-23T03:45:07.476Z,15.60
2022-10-23T03:47:11.728Z,15.60
2022-10-23T03:49:14.549Z,15.50
2022-10-23T03:51:18.822Z,15.60
2022-10-23T03:53:20.479Z,15.50
2022-10-23T03:55:22.172Z,15.50
2022-10-23T03:57:26.540Z,15.50
2022-10-23T03:59:29.006Z,15.50
2022-10-23T04:01:33.379Z,15.50
2022-10-23T04:03:35.137Z,15.50
2022-10-23T04:05:40.557Z,15.50
2022-10-23T04:07:42.277Z,15.40
2022-10-23T04:09:45.428Z,15.40
2022-10-23T04:11:52.935Z,15.40
2022-10-23T04:13:54.651Z,15.40
2022-10-23T04:15:57.998Z,15.30
2022-10-23T04:18:02.111Z,15.40
2022-10-23T04:20:05.907Z,15.30
2022-10-23T04:22:08.613Z,15.30
2022-10-23T04:24:10.639Z,15.30
2022-10-23T04:26:13.603Z,15.30
2022-10-23T04:28:15.278Z,15.30
2022-10-23T04:30:20.556Z,15.30
2022-10-23T04:32:22.720Z,15.20
2022-10-23T04:34:24.435Z,15.20
2022-10-23T04:36:28.285Z,15.20
2022-10-23T04:38:32.253Z,15.20
2022-10-23T04:40:38.053Z,15.10
2022-10-23T04:42:40.040Z,15.20
2022-10-23T04:44:43.474Z,15.10
2022-10-23T04:46:46.099Z,15.10
2022-10-23T04:48:48.159Z,15.10
2022-10-23T04:51:20.059Z,15.00
2022-10-23T04:53:33.975Z,15.10
2022-10-23T04:55:53.480Z,15.00
2022-10-23T04:57:59.767Z,15.00
2022-10-23T05:00:01.601Z,15.00
2022-10-23T05:02:09.918Z,15.00
2022-10-23T05:04:11.849Z,15.00
2022-10-23T05:06:33.557Z,15.00
2022-10-23T05:08:57.473Z,15.10
2022-10-23T05:11:29.141Z,15.10
2022-10-23T05:13:30.877Z,15.10
2022-10-23T05:15:32.606Z,15.20
2022-10-23T05:17:37.635Z,15.10
2022-10-23T05:19:47.539Z,15.10
2022-10-23T05:21:55.635Z,15.10
2022-10-23T05:24:02.014Z,15.10
2022-10-23T05:26:04.754Z,15.10
2022-10-23T05:28:07.222Z,15.10
2022-10-23T05:30:11.206Z,15.00
2022-10-23T05:32:16.073Z,15.00
2022-10-23T05:34:25.408Z,15.00
2022-10-23T05:36:27.617Z,15.00
2022-10-23T05:38:36.168Z,14.90
2022-10-23T05:40:45.246Z,14.90
2022-10-23T05:42:55.622Z,14.90
2022-10-23T05:45:08.949Z,14.90
2022-10-23T05:47:42.024Z,14.90
2022-10-23T05:50:03.247Z,14.80
2022-10-23T05:52:27.813Z,14.90
2022-10-23T05:54:53.191Z,14.80
2022-10-23T05:57:14.753Z,14.80
2022-10-23T05:59:22.086Z,14.80
2022-10-23T06:01:27.829Z,14.70
2022-10-23T06:03:37.715Z,14.70
2022-10-23T06:05:49.851Z,14.70
2022-10-23T06:07:59.080Z,14.70
2022-10-23T06:10:00.882Z,14.70
2022-10-23T06:12:02.921Z,14.60
2022-10-23T06:14:07.073Z,14.60
2022-10-23T06:16:10.664Z,14.60
2022-10-23T06:18:13.482Z,14.60
2022-10-23T06:20:28.928Z,14.60
2022-10-23T06:22:40.284Z,14.60
2022-10-23T06:25:01.445Z,14.60
2022-10-23T06:27:06.321Z,14.70
2022-10-23T06:29:13.890Z,14.70
2022-10-23T06:31:19.876Z,14.70
2022-10-23T06:33:23.313Z,14.80
2022-10-23T06:35:25.081Z,14.80
2022-10-23T06:37:27.184Z,14.80
2022-10-23T06:39:41.094Z,14.90
2022-10-23T06:41:55.889Z,14.90
2022-10-23T06:44:16.210Z,15.00
2022-10-23T06:46:24.340Z,15.00
2022-10-23T06:48:58.637Z,15.00
2022-10-23T06:51:06.963Z,15.10
2022-10-23T06:53:14.690Z,15.10
2022-10-23T06:55:22.946Z,15.10
2022-10-23T06:57:24.593Z,15.10
2022-10-23T06:59:26.276Z,15.10
2022-10-23T07:01:28.566Z,15.10
2022-10-23T07:03:30.728Z,15.20
2022-10-23T07:05:32.928Z,15.20
2022-10-23T07:07:35.464Z,15.30
2022-10-23T07:09:37.256Z,15.30
2022-10-23T07:11:57.742Z,15.30
2022-10-23T07:14:07.957Z,15.30
2022-10-23T07:16:12.322Z,15.40
2022-10-23T07:18:16.927Z,15.40
2022-10-23T07:20:37.131Z,15.40
2022-10-23T07:22:38.943Z,15.40
2022-10-23T07:24:47.031Z,15.40
2022-10-23T07:26:59.867Z,15.40
2022-10-23T07:29:03.962Z,15.40
2022-10-23T07:31:09.556Z,15.40
2022-10-23T07:33:31.148Z,15.40
2022-10-23T07:35:41.044Z,15.50
2022-10-23T07:37:46.422Z,15.50
2022-10-23T07:39:48.238Z,15.60
2022-10-23T07:41:50.167Z,15.60
2022-10-23T07:43:52.910Z,15.70
2022-10-23T07:45:57.025Z,15.70
2022-10-23T07:48:05.113Z,15.80
2022-10-23T07:50:29.407Z,15.80
2022-10-23T07:52:33.596Z,15.80
2022-10-23T07:54:46.177Z,15.90
2022-10-23T07:56:53.748Z,15.90
2022-10-23T07:58:58.716Z,16.00
2022-10-23T08:01:05.102Z,16.00
2022-10-23T08:03:15.168Z,16.10
2022-10-23T08:05:19.822Z,16.10
2022-10-23T08:07:31.131Z,16.20
2022-10-23T08:09:34.413Z,16.20
2022-10-23T08:11:37.986Z,16.30
2022-10-23T08:13:42.176Z,16.40
2022-10-23T08:15:45.094Z,16.40
2022-10-23T08:18:05.141Z,16.50
2022-10-23T08:20:17.466Z,16.50
2022-10-23T08:22:20.556Z,16.50
2022-10-23T08:24:23.679Z,16.60
2022-10-23T08:26:26.821Z,16.60
2022-10-23T08:28:30.212Z,16.60
2022-10-23T08:30:36.755Z,16.70
2022-10-23T08:32:40.686Z,16.70
2022-10-23T08:34:42.768Z,16.80
2022-10-23T08:36:46.974Z,16.80
2022-10-23T08:38:49.860Z,16.80
2022-10-23T08:40:54.427Z,16.80
2022-10-23T08:43:37.834Z,16.90
2022-10-23T08:45:59.892Z,16.90
2022-10-23T08:48:48.207Z,17.00
2022-10-23T08:51:35.358Z,17.10
2022-10-23T08:54:08.213Z,17.20
2022-10-23T08:56:20.520Z,17.30
2022-10-23T08:58:36.158Z,17.30
2022-10-23T09:00:37.891Z,17.40
2022-10-23T09:02:51.002Z,17.50
2022-10-23T09:04:54.943Z,17.50
2022-10-23T09:07:12.759Z,17.60
2022-10-23T09:09:29.153Z,17.70
2022-10-23T09:11:42.971Z,17.80
2022-10-23T09:14:02.305Z,17.80
2022-10-23T09:16:25.274Z,17.90
2022-10-23T09:18:29.157Z,17.90
2022-10-23T09:20:35.772Z,18.00
2022-10-23T09:22:37.450Z,18.10
2022-10-23T09:24:43.118Z,18.10
2022-10-23T09:26:49.591Z,18.20
2022-10-23T09:29:09.041Z,18.30
2022-10-23T09:31:12.486Z,18.30
2022-10-23T09:33:40.238Z,18.30
2022-10-23T09:35:54.131Z,18.40
2022-10-23T09:37:56.670Z,18.40
2022-10-23T09:40:28.914Z,18.40
2022-10-23T09:42:33.248Z,18.50
2022-10-23T09:44:34.865Z,18.50
2022-10-23T09:46:41.736Z,18.50
2022-10-23T09:48:45.722Z,18.50
2022-10-23T09:51:17.677Z,18.60
2022-10-23T09:53:27.465Z,18.70
2022-10-23T09:55:31.354Z,18.70
2022-10-23T09:57:41.450Z,18.80
2022-10-23T09:59:50.014Z,18.90
2022-10-23T10:01:54.670Z,19.00
2022-10-23T10:04:08.426Z,19.10
2022-10-23T10:06:22.934Z,19.20
2022-10-23T10:08:46.450Z,19.30
2022-10-23T10:10:53.801Z,19.50
2022-10-23T10:13:01.761Z,19.60
2022-10-23T10:15:19.082Z,19.70
2022-10-23T10:17:39.285Z,19.80
2022-10-23T10:20:14.546Z,19.90
2022-10-23T10:22:44.679Z,20.10
2022-10-23T10:24:51.867Z,20.20
2022-10-23T10:27:19.557Z,20.30
2022-10-23T10:29:31.182Z,20.40
2022-10-23T10:32:01.820Z,20.50
2022-10-23T10:34:15.632Z,20.60
2022-10-23T10:36:30.630Z,20.70
2022-10-23T10:39:11.041Z,20.80
2022-10-23T10:41:42.102Z,20.90
2022-10-23T10:44:10.690Z,21.00
2022-10-23T10:46:57.090Z,21.10
2022-10-23T10:49:17.590Z,21.20
2022-10-23T10:51:52.055Z,21.30
2022-10-23T10:54:07.826Z,21.40
2022-10-23T10:56:14.637Z,21.50
2022-10-23T10:58:18.578Z,21.70
2022-10-23T11:00:26.962Z,21.70
2022-10-23T11:02:41.426Z,21.90
2022-10-23T11:04:55.587Z,21.90
2022-10-23T11:06:58.463Z,22.00
2022-10-23T11:09:20.751Z,22.00
2022-10-23T11:11:37.180Z,22.00
2022-10-23T11:13:41.900Z,22.00
2022-10-23T11:15:44.542Z,22.00
2022-10-23T11:17:55.204Z,21.90
2022-10-23T11:20:10.284Z,21.90
2022-10-23T11:22:46.768Z,21.90
2022-10-23T11:25:16.061Z,21.90
2022-10-23T11:27:56.540Z,21.90
2022-10-23T11:30:23.652Z,21.90
2022-10-23T11:33:07.912Z,22.00
2022-10-23T11:35:42.596Z,22.00
2022-10-23T11:37:44.525Z,22.00
2022-10-23T11:40:04.210Z,22.10
2022-10-23T11:42:05.800Z,22.10
2022-10-23T11:44:46.349Z,22.10
2022-10-23T11:47:00.964Z,22.20
2022-10-23T11:49:06.028Z,22.20
2022-10-23T11:51:33.842Z,22.20
2022-10-23T11:53:35.417Z,22.20
2022-10-23T11:55:39.207Z,22.20
2022-10-23T11:57:41.050Z,22.20
2022-10-23T11:59:48.629Z,22.30
2022-10-23T12:01:52.287Z,22.30
2022-10-23T12:03:59.139Z,22.40
2022-10-23T12:06:05.540Z,22.40
2022-10-23T12:08:21.442Z,22.50
2022-10-23T12:10:30.667Z,22.60
2022-10-23T12:12:43.094Z,22.60
2022-10-23T12:14:50.160Z,22.60
2022-10-23T12:16:52.228Z,22.70
2022-10-23T12:18:59.021Z,22.80
2022-10-23T12:21:04.556Z,22.90
2022-10-23T12:23:23.836Z,23.00
2022-10-23T12:25:44.194Z,23.10
2022-10-23T12:28:07.688Z,23.20
2022-10-23T12:30:48.526Z,23.30
2022-10-23T12:33:05.558Z,23.40
2022-10-23T12:35:28.592Z,23.40
2022-10-23T12:37:48.630Z,23.50
2022-10-23T12:39:55.965Z,23.50
2022-10-23T12:41:59.070Z,23.50
2022-10-23T12:44:05.570Z,23.60
2022-10-23T12:46:32.101Z,23.60
2022-10-23T12:48:34.361Z,23.60
2022-10-23T12:50:37.042Z,23.60
2022-10-23T12:52:39.614Z,23.60
2022-10-23T12:54:41.465Z,23.60
2022-10-23T12:56:45.058Z,23.60
2022-10-23T12:59:00.502Z,23.60
2022-10-23T13:01:21.235Z,23.70
2022-10-23T13:03:25.418Z,23.70
2022-10-23T13:05:33.828Z,23.70
2022-10-23T13:07:45.270Z,23.60
2022-10-23T13:09:49.374Z,23.60
2022-10-23T13:12:04.322Z,23.60
2022-10-23T13:14:16.262Z,23.60
2022-10-23T13:16:30.622Z,23.60
2022-10-23T13:18:41.397Z,23.60
2022-10-23T13:20:53.605Z,23.60
2022-10-23T13:23:19.729Z,23.60
2022-10-23T13:25:32.909Z,23.60
2022-10-23T13:27:34.715Z,23.60
2022-10-23T13:29:36.475Z,23.50
2022-10-23T13:31:38.184Z,23.50
2022-10-23T13:33:44.243Z,23.50
2022-10-23T13:35:56.682Z,23.60
2022-10-23T13:38:08.386Z,23.60
2022-10-23T13:40:23.794Z,23.60
2022-10-23T13:42:25.544Z,23.60
2022-10-23T13:44:27.224Z,23.60
2022-10-23T13:46:29.306Z,23.60
2022-10-23T13:48:31.063Z,23.70
2022-10-23T13:50:33.958Z,23.70
2022-10-23T13:52:35.584Z,23.70
2022-10-23T13:54:37.225Z,23.70
2022-10-23T13:56:38.906Z,23.70
2022-10-23T13:58:42.860Z,23.70
2022-10-23T14:00:46.807Z,23.70
2022-10-23T14:02:49.832Z,23.70
2022-10-23T14:04:51.918Z,23.70
2022-10-23T14:06:58.299Z,23.70
2022-10-23T14:09:00.105Z,23.60
2022-10-23T14:11:01.781Z,23.60
2022-10-23T14:13:06.091Z,23.60
2022-10-23T14:15:08.783Z,23.50
2022-10-23T14:17:10.516Z,23.50
2022-10-23T14:19:15.126Z,23.50
2022-10-23T14:21:20.056Z,23.50
2022-10-23T14:23:22.653Z,23.50
2022-10-23T14:25:24.289Z,23.50
2022-10-23T14:27:25.942Z,23.50
2022-10-23T14:29:29.873Z,23.50
2022-10-23T14:31:31.642Z,23.40
2022-10-23T14:33:35.970Z,23.50
2022-10-23T14:35:40.928Z,23.40
2022-10-23T14:37:45.117Z,23.40
2022-10-23T14:39:49.990Z,23.40
2022-10-23T14:41:53.126Z,23.40
2022-10-23T14:43:55.129Z,23.40
2022-10-23T14:45:56.841Z,23.30
2022-10-23T14:48:00.867Z,23.30
2022-10-23T14:50:02.952Z,23.30
2022-10-23T14:52:04.722Z,23.20
2022-10-23T14:54:09.251Z,23.20
2022-10-23T14:56:11.112Z,23.10
2022-10-23T14:58:13.001Z,23.20
2022-10-23T15:00:14.895Z,23.10
2022-10-23T15:02:17.349Z,23.10
2022-10-23T15:04:20.211Z,23.10
2022-10-23T15:06:21.887Z,23.10
2022-10-23T15:08:23.758Z,23.10
2022-10-23T15:10:25.454Z,23.10
2022-10-23T15:12:27.136Z,23.10
2022-10-23T15:14:28.879Z,23.00
2022-10-23T15:16:33.028Z,23.00
2022-10-23T15:20:52.021Z,22.90
2022-10-23T15:22:56.653Z,22.90
2022-10-23T15:25:01.144Z,22.90
2022-10-23T15:27:02.992Z,22.80
2022-10-23T15:29:06.592Z,22.80
2022-10-23T15:31:43.928Z,22.70
2022-10-23T15:33:45.567Z,22.80
2022-10-23T15:35:48.879Z,22.60
2022-10-23T15:37:50.754Z,22.60
2022-10-23T15:39:52.455Z,22.60
2022-10-23T15:41:56.475Z,22.50
2022-10-23T15:43:59.424Z,22.50
2022-10-23T15:46:01.062Z,22.40
2022-10-23T15:48:05.293Z,22.40
2022-10-23T15:50:07.680Z,22.40
2022-10-23T15:54:21.085Z,22.30
2022-10-23T15:56:24.937Z,22.30
2022-10-23T15:58:28.741Z,22.20
2022-10-23T16:00:30.541Z,22.20
2022-10-23T16:02:35.204Z,22.20
2022-10-23T16:04:36.958Z,22.10
2022-10-23T16:06:41.350Z,22.10
2022-10-23T16:08:43.900Z,22.00
2022-10-23T16:10:45.691Z,22.00
2022-10-23T16:12:47.324Z,22.00
2022-10-23T16:14:53.435Z,21.90
2022-10-23T16:16:55.086Z,21.80
2022-10-23T16:19:00.989Z,21.80
2022-10-23T16:21:02.681Z,21.80
2022-10-23T16:23:04.303Z,21.80
2022-10-23T16:25:06.581Z,21.70
2022-10-23T16:27:08.254Z,21.60
2022-10-23T16:29:11.239Z,21.50
2022-10-23T16:31:20.688Z,21.20
2022-10-23T16:33:22.480Z,21.10
2022-10-23T16:35:24.233Z,20.90
2022-10-23T16:37:37.376Z,20.60
2022-10-23T16:39:43.106Z,20.30
2022-10-23T16:42:03.567Z,20.20
2022-10-23T16:44:19.801Z,20.00
2022-10-23T16:46:34.370Z,19.80
2022-10-23T16:48:38.337Z,19.70
2022-10-23T16:50:41.241Z,19.60
2022-10-23T16:52:43.265Z,19.50
2022-10-23T16:54:45.127Z,19.40
2022-10-23T16:56:48.261Z,19.30
2022-10-23T16:58:50.059Z,19.20
2022-10-23T17:01:00.211Z,19.20
2022-10-23T17:03:04.272Z,19.20
2022-10-23T17:05:06.263Z,19.10
2022-10-23T17:07:12.926Z,19.10
2022-10-23T17:09:14.971Z,19.00
2022-10-23T17:11:22.560Z,19.00
2022-10-23T17:13:25.289Z,19.00
2022-10-23T17:15:26.962Z,18.90
2022-10-23T17:17:28.714Z,18.90
2022-10-23T17:19:47.034Z,18.90
2022-10-23T17:21:50.923Z,18.90
2022-10-23T17:23:53.939Z,18.90
2022-10-23T17:25:58.013Z,18.90
2022-10-23T17:27:59.639Z,18.90
2022-10-23T17:30:03.326Z,18.90
2022-10-23T17:32:05.911Z,18.90
2022-10-23T17:34:12.973Z,18.90
2022-10-23T17:36:15.948Z,18.90
2022-10-23T17:38:18.997Z,18.90
2022-10-23T17:40:24.902Z,18.90
2022-10-23T17:42:26.968Z,18.90
2022-10-23T17:44:32.855Z,18.90
2022-10-23T17:46:34.533Z,18.90
2022-10-23T17:48:36.621Z,18.90
2022-10-23T17:50:38.699Z,18.80
2022-10-23T17:52:43.218Z,18.80
2022-10-23T17:54:45.091Z,18.90
2022-10-23T17:56:47.000Z,18.80
2022-10-23T17:58:51.073Z,18.80
2022-10-23T18:00:54.141Z,18.90
2022-10-23T18:02:58.116Z,18.90
2022-10-23T18:04:59.926Z,18.90
2022-10-23T18:07:01.566Z,18.90
2022-10-23T18:09:05.965Z,18.90
2022-10-23T18:11:13.764Z,18.90
2022-10-23T18:13:22.631Z,18.90
2022-10-23T18:15:24.391Z,18.90
2022-10-23T18:17:26.197Z,18.90
2022-10-23T18:19:28.197Z,18.90
2022-10-23T18:21:30.732Z,18.90
2022-10-23T18:23:33.034Z,18.90
2022-10-23T18:25:35.212Z,19.00
2022-10-23T18:27:39.642Z,19.00
2022-10-23T18:29:43.524Z,19.00
2022-10-23T18:31:48.178Z,19.00
2022-10-23T18:33:50.010Z,19.00
2022-10-23T18:35:52.901Z,19.10
2022-10-23T18:37:54.659Z,19.10
2022-10-23T18:39:56.428Z,19.10
2022-10-23T18:41:58.627Z,19.10
2022-10-23T18:44:02.511Z,19.10
2022-10-23T18:46:04.988Z,19.10
2022-10-23T18:48:06.923Z,19.10
2022-10-23T18:50:09.227Z,19.10
2022-10-23T18:52:11.270Z,19.10
2022-10-23T18:54:14.777Z,19.10
2022-10-23T18:56:22.718Z,19.10
2022-10-23T18:58:25.154Z,19.00
2022-10-23T19:00:27.045Z,19.00
2022-10-23T19:02:30.030Z,18.90
2022-10-23T19:04:34.237Z,18.90
2022-10-23T19:06:38.186Z,18.90
2022-10-23T19:08:41.709Z,18.90
2022-10-23T19:10:44.926Z,18.80
2022-10-23T19:12:46.964Z,18.80
2022-10-23T19:14:49.124Z,18.80
2022-10-23T19:17:14.267Z,18.80
2022-10-23T19:19:21.553Z,18.90
2022-10-23T19:21:31.157Z,19.00
2022-10-23T19:23:37.942Z,18.70
2022-10-23T19:25:39.916Z,18.70
2022-10-23T19:27:44.420Z,18.60
2022-10-23T19:29:49.843Z,18.60
2022-10-23T19:31:51.959Z,18.60
2022-10-23T19:33:53.906Z,18.60
2022-10-23T19:35:55.713Z,18.50
2022-10-23T19:37:57.786Z,18.50
2022-10-23T19:39:59.765Z,18.50
2022-10-23T19:42:01.595Z,18.50
2022-10-23T19:44:03.589Z,18.50
2022-10-23T19:46:09.367Z,18.50
2022-10-23T19:48:19.746Z,18.40
2022-10-23T19:50:21.901Z,18.50
2022-10-23T19:52:23.855Z,18.50
2022-10-23T19:54:25.668Z,18.40
2022-10-23T19:56:31.674Z,18.40
2022-10-23T19:58:33.646Z,18.40
2022-10-23T20:00:36.475Z,18.40
2022-10-23T20:02:38.377Z,18.40
2022-10-23T20:04:40.645Z,18.40
2022-10-23T20:06:42.465Z,18.40
2022-10-23T20:08:44.245Z,18.40
2022-10-23T20:10:47.952Z,18.40
2022-10-23T20:12:56.693Z,18.40
2022-10-23T20:15:04.689Z,18.30
2022-10-23T20:17:06.581Z,18.40
2022-10-23T20:19:10.144Z,18.40
2022-10-23T20:21:12.068Z,18.40
2022-10-23T20:23:13.791Z,18.40
2022-10-23T20:25:16.082Z,18.30
2022-10-23T20:27:18.699Z,18.40
2022-10-23T20:29:22.319Z,18.30
2022-10-23T20:31:26.362Z,18.40
2022-10-23T20:33:28.710Z,18.40
2022-10-23T20:35:37.039Z,18.40
2022-10-23T20:37:38.913Z,18.40
2022-10-23T20:39:40.725Z,18.40
2022-10-23T20:41:43.805Z,18.40
2022-10-23T20:43:45.558Z,18.40
2022-10-23T20:45:47.549Z,18.40
2022-10-23T20:47:49.337Z,18.40
2022-10-23T20:49:51.154Z,18.40
2022-10-23T20:51:55.704Z,18.40
2022-10-23T20:53:57.885Z,18.40
2022-10-23T20:55:59.750Z,18.40
2022-10-23T20:58:01.647Z,18.40
2022-10-23T21:00:05.916Z,18.40
2022-10-23T21:02:09.360Z,18.40
2022-10-23T21:04:14.465Z,18.40
2022-10-23T21:06:17.377Z,18.50
2022-10-23T21:08:22.372Z,18.50
2022-10-23T21:10:24.147Z,18.50
2022-10-23T21:12:25.973Z,18.50
2022-10-23T21:14:28.590Z,18.50
2022-10-23T21:16:33.687Z,18.50
2022-10-23T21:18:45.659Z,18.60
2022-10-23T21:20:48.047Z,18.50
2022-10-23T21:22:54.290Z,18.50
2022-10-23T21:24:58.271Z,18.50
2022-10-23T21:27:00.010Z,18.60
2022-10-23T21:29:18.119Z,18.50
2022-10-23T21:31:21.925Z,18.50
2022-10-23T21:33:23.691Z,18.60
2022-10-23T21:35:27.834Z,18.60
2022-10-23T21:37:32.108Z,18.60
2022-10-23T21:39:34.363Z,18.50
2022-10-23T21:41:36.349Z,18.60
2022-10-23T21:43:38.243Z,18.60
2022-10-23T21:45:40.471Z,18.60
2022-10-23T21:47:42.493Z,18.50
2022-10-23T21:49:44.770Z,18.50
2022-10-23T21:51:47.346Z,18.50
2022-10-23T21:53:49.662Z,18.60
2022-10-23T21:55:51.715Z,18.60
2022-10-23T21:57:53.729Z,18.60
2022-10-23T21:59:58.320Z,18.60
2022-10-23T22:02:00.335Z,18.60
2022-10-23T22:04:02.521Z,18.60
2022-10-23T22:06:04.253Z,18.60
2022-10-23T22:08:06.181Z,18.50
2022-10-23T22:10:08.325Z,18.60
2022-10-23T22:12:14.214Z,18.60
2022-10-23T22:14:16.142Z,18.60
2022-10-23T22:16:18.169Z,18.60
2022-10-23T22:18:19.943Z,18.60
2022-10-23T22:20:21.666Z,18.60
2022-10-23T22:22:23.430Z,18.60
2022-10-23T22:24:25.656Z,18.60
2022-10-23T22:26:32.588Z,18.60
2022-10-23T22:28:34.360Z,18.60
2022-10-23T22:30:36.849Z,18.60
2022-10-23T22:32:38.557Z,18.60
2022-10-23T22:34:52.232Z,18.60
2022-10-23T22:36:55.133Z,18.60
2022-10-23T22:38:57.570Z,18.60
2022-10-23T22:41:02.636Z,18.60
2022-10-23T22:43:04.713Z,18.60
2022-10-23T22:45:07.492Z,18.60
2022-10-23T22:47:09.442Z,18.60
2022-10-23T22:49:11.546Z,18.60
2022-10-23T22:51:16.170Z,18.60
2022-10-23T22:53:18.000Z,18.60
2022-10-23T22:55:19.710Z,18.60
2022-10-23T22:57:21.686Z,18.60
2022-10-23T22:59:23.941Z,18.50
2022-10-23T23:01:31.018Z,18.50
2022-10-23T23:03:34.952Z,18.70
2022-10-23T23:05:44.793Z,18.50
2022-10-23T23:07:46.836Z,18.60
2022-10-23T23:09:49.062Z,18.50
2022-10-23T23:11:52.536Z,18.50
2022-10-23T23:13:54.679Z,18.50
2022-10-23T23:15:56.775Z,18.50
2022-10-23T23:17:59.459Z,18.50
2022-10-23T23:20:01.307Z,18.50
2022-10-23T23:22:03.997Z,18.50
2022-10-23T23:24:05.824Z,18.50
2022-10-23T23:26:08.579Z,18.50
2022-10-23T23:28:15.625Z,18.50
2022-10-23T23:30:19.382Z,18.60
2022-10-23T23:32:21.302Z,18.50
2022-10-23T23:34:23.106Z,18.60
2022-10-23T23:36:27.335Z,18.50
2022-10-23T23:38:29.181Z,18.50
2022-10-23T23:40:30.939Z,18.50
2022-10-23T23:42:33.193Z,18.60
2022-10-23T23:44:41.869Z,18.60
2022-10-23T23:46:52.110Z,18.50
2022-10-23T23:48:53.854Z,18.60
2022-10-23T23:50:55.678Z,18.60
2022-10-23T23:52:57.392Z,18.60
2022-10-23T23:54:59.945Z,18.60
2022-10-23T23:57:05.667Z,18.50
2022-10-23T23:59:07.493Z,18.60
